Time;durP1;ratioP1;P1;durP2;ratioP2;P2;SDS_P1;SDS_P2;PMS_P1;PMS_P2;Temp;Humidity;BMP_temperature;BMP_pressure;BME280_temperature;BME280_humidity;BME280_pressure;Samples;Min_cycle;Max_cycle;Signal;HPM_P1;HPM_P2
2022/01/14 00:00:10;;;;;;;22.13;11.10;;;-2.00;99.90;;;;;;5056381;28;20053;-96
2022/01/14 00:02:37;;;;;;;18.23;9.40;;;-2.00;99.90;;;;;;5056951;28;20516;-95
2022/01/14 00:05:04;;;;;;;20.30;9.15;;;-2.10;99.90;;;;;;5060051;28;20056;-96
2022/01/14 00:07:31;;;;;;;17.70;8.85;;;-2.00;99.90;;;;;;5061216;28;20049;-96
2022/01/14 00:10:00;;;;;;;18.63;9.80;;;-1.90;99.90;;;;;;5063456;28;20091;-96
2022/01/14 00:12:35;;;;;;;17.17;9.23;;;-1.90;99.90;;;;;;5064444;28;20044;-96
2022/01/14 00:15:24;;;;;;;17.52;8.88;;;-2.00;99.90;;;;;;5063607;28;20092;-96
2022/01/14 00:17:55;;;;;;;17.30;9.07;;;-2.10;99.90;;;;;;5084183;22;20048;-83
2022/01/14 00:20:22;;;;;;;19.70;9.50;;;-2.10;99.90;;;;;;5053272;28;20323;-82
2022/01/14 00:22:50;;;;;;;18.45;9.98;;;-2.30;99.90;;;;;;5051673;28;20395;-83
2022/01/14 00:33:31;;;;;;;16.98;8.40;;;-2.30;99.90;;;;;;5054036;28;20047;-81
2022/01/14 00:35:57;;;;;;;12.05;7.55;;;-2.30;99.90;;;;;;5054198;28;20091;-81
2022/01/14 00:38:24;;;;;;;17.85;8.95;;;-2.30;99.90;;;;;;5053137;28;20048;-81
2022/01/14 00:40:51;;;;;;;13.45;7.72;;;-2.40;99.90;;;;;;5053242;28;20084;-81
2022/01/14 00:43:18;;;;;;;17.67;8.75;;;-2.30;99.90;;;;;;5055134;28;20620;-80
2022/01/14 00:45:45;;;;;;;17.63;8.55;;;-2.40;99.90;;;;;;5052776;28;20057;-81
2022/01/14 00:48:12;;;;;;;14.45;8.07;;;-2.40;99.90;;;;;;5053007;28;20502;-81
2022/01/14 00:50:44;;;;;;;16.13;8.32;;;-2.30;99.90;;;;;;5054000;28;20227;-80
2022/01/14 00:53:11;;;;;;;19.30;9.43;;;-2.40;99.90;;;;;;5053655;28;20048;-81
2022/01/14 00:55:50;;;;;;;14.77;8.65;;;-2.50;99.90;;;;;;5052397;28;20140;-81
2022/01/14 01:01:03;;;;;;;16.85;9.57;;;-2.60;99.90;;;;;;5053480;28;20485;-80
2022/01/14 01:03:32;;;;;;;17.15;7.95;;;-2.60;99.90;;;;;;5052681;28;20048;-81
2022/01/14 01:05:59;;;;;;;18.88;8.27;;;-2.60;99.90;;;;;;5053175;28;20131;-81
2022/01/14 01:08:28;;;;;;;15.70;8.30;;;-2.60;99.90;;;;;;5075978;28;20029;-80
2022/01/14 01:10:54;;;;;;;17.95;8.43;;;-2.60;99.90;;;;;;5076959;28;20056;-78
2022/01/14 01:13:32;;;;;;;14.55;7.85;;;-2.60;99.90;;;;;;5074943;28;20063;-80
2022/01/14 01:15:59;;;;;;;13.45;7.82;;;-2.60;99.90;;;;;;5077470;28;20044;-79
2022/01/14 01:18:27;;;;;;;14.50;7.35;;;-2.60;99.90;;;;;;5076983;28;20075;-79
2022/01/14 01:20:54;;;;;;;15.18;7.68;;;-2.60;99.90;;;;;;5076807;28;20056;-79
2022/01/14 01:23:21;;;;;;;14.20;7.72;;;-2.60;99.90;;;;;;5077211;28;20033;-79
2022/01/14 01:25:55;;;;;;;16.73;8.55;;;-2.60;99.90;;;;;;5077351;28;20060;-78
2022/01/14 01:28:21;;;;;;;11.68;7.10;;;-2.60;99.90;;;;;;5070050;28;20187;-81
2022/01/14 01:31:06;;;;;;;18.42;8.70;;;-2.50;99.90;;;;;;5071061;28;20056;-82
2022/01/14 01:33:33;;;;;;;16.13;8.73;;;-2.50;99.90;;;;;;5056537;28;20045;-82
2022/01/14 01:36:00;;;;;;;14.73;7.65;;;-2.50;99.90;;;;;;5054667;28;20084;-82
2022/01/14 01:38:27;;;;;;;15.90;7.82;;;-2.40;99.90;;;;;;5052355;28;20131;-82
2022/01/14 01:40:54;;;;;;;13.02;7.57;;;-2.60;99.90;;;;;;5053661;28;20083;-82
2022/01/14 01:43:25;;;;;;;13.63;6.75;;;-2.60;99.90;;;;;;5052274;28;20053;-82
2022/01/14 01:45:54;;;;;;;11.05;7.03;;;-2.70;99.90;;;;;;5051920;28;20048;-82
2022/01/14 01:48:21;;;;;;;11.63;6.90;;;-2.60;99.90;;;;;;5052023;28;20053;-82
2022/01/14 01:50:48;;;;;;;14.10;6.93;;;-2.60;99.90;;;;;;5052193;28;20045;-82
2022/01/14 01:53:15;;;;;;;12.60;7.03;;;-2.70;99.90;;;;;;5051668;28;20128;-82
2022/01/14 01:55:42;;;;;;;13.98;6.57;;;-2.70;99.90;;;;;;5052961;28;20140;-82
2022/01/14 01:58:08;;;;;;;14.27;6.15;;;-2.70;99.90;;;;;;5052661;28;20132;-82
2022/01/14 02:00:38;;;;;;;9.90;6.07;;;-2.70;99.90;;;;;;5053222;28;20057;-82
2022/01/14 02:03:06;;;;;;;10.65;6.15;;;-2.70;99.90;;;;;;5052228;28;20057;-82
2022/01/14 02:05:33;;;;;;;13.48;6.40;;;-2.70;99.90;;;;;;5053446;28;20152;-82
2022/01/14 02:08:00;;;;;;;13.75;7.75;;;-2.70;99.90;;;;;;5051575;28;20580;-82
2022/01/14 02:10:27;;;;;;;20.15;7.38;;;-2.80;99.90;;;;;;5053373;28;20088;-82
2022/01/14 02:12:54;;;;;;;13.15;7.03;;;-2.80;99.90;;;;;;5056342;28;20160;-82
2022/01/14 02:18:26;;;;;;;13.95;7.03;;;-2.60;99.90;;;;;;5056617;28;20097;-82
2022/01/14 02:23:27;;;;;;;14.32;6.57;;;-2.60;99.90;;;;;;5056273;28;20084;-82
2022/01/14 02:25:53;;;;;;;11.13;6.32;;;-2.70;99.90;;;;;;5055139;28;20088;-82
2022/01/14 02:28:20;;;;;;;13.25;6.45;;;-2.70;99.90;;;;;;5055838;28;20144;-82
2022/01/14 02:30:49;;;;;;;13.10;7.47;;;-2.70;99.90;;;;;;5055674;28;20057;-82
2022/01/14 02:33:18;;;;;;;12.98;6.85;;;-2.70;99.90;;;;;;5055191;28;20131;-82
2022/01/14 02:35:47;;;;;;;12.23;6.80;;;-2.70;99.90;;;;;;5054811;28;20133;-82
2022/01/14 02:38:16;;;;;;;14.93;7.25;;;-2.70;99.90;;;;;;5055643;28;20045;-82
2022/01/14 02:40:43;;;;;;;10.75;6.55;;;-2.80;99.90;;;;;;5055250;28;20136;-82
2022/01/14 02:43:14;;;;;;;12.25;6.68;;;-2.70;99.90;;;;;;5054863;28;20165;-82
2022/01/14 02:45:47;;;;;;;12.55;6.55;;;-2.70;99.90;;;;;;5055135;28;20087;-82
2022/01/14 02:48:14;;;;;;;13.27;6.78;;;-2.80;99.90;;;;;;5055956;28;20084;-82
2022/01/14 02:50:53;;;;;;;10.82;6.80;;;-2.80;99.90;;;;;;5055846;28;20052;-82
2022/01/14 02:53:42;;;;;;;14.10;6.88;;;-2.80;99.90;;;;;;5055521;28;20044;-82
2022/01/14 02:56:19;;;;;;;10.10;5.90;;;-2.80;99.90;;;;;;5054642;28;20557;-82
2022/01/14 02:58:49;;;;;;;9.65;5.68;;;-2.90;99.90;;;;;;5054908;28;20569;-82
2022/01/14 03:01:18;;;;;;;12.65;6.30;;;-2.90;99.90;;;;;;5057425;28;20464;-82
2022/01/14 03:03:45;;;;;;;10.35;5.68;;;-2.90;99.90;;;;;;5056411;28;20143;-82
2022/01/14 03:06:13;;;;;;;8.80;5.72;;;-2.90;99.90;;;;;;5057160;28;20477;-82
2022/01/14 03:08:43;;;;;;;11.07;6.93;;;-2.90;99.90;;;;;;5055251;28;20049;-82
2022/01/14 03:11:14;;;;;;;11.85;6.35;;;-2.90;99.90;;;;;;5055108;28;20053;-81
2022/01/14 03:13:41;;;;;;;9.68;6.05;;;-2.90;99.90;;;;;;5053947;28;20051;-81
2022/01/14 03:16:09;;;;;;;11.68;5.97;;;-2.90;99.90;;;;;;5054938;28;20573;-82
2022/01/14 03:18:47;;;;;;;10.23;6.18;;;-2.90;99.90;;;;;;5054265;28;20604;-82
2022/01/14 03:21:17;;;;;;;10.60;5.75;;;-3.00;99.90;;;;;;5052927;28;20140;-82
2022/01/14 03:23:48;;;;;;;9.07;6.07;;;-3.00;99.90;;;;;;5054057;28;20453;-82
2022/01/14 03:26:17;;;;;;;10.48;6.38;;;-3.00;99.90;;;;;;5055111;28;20128;-82
2022/01/14 03:28:44;;;;;;;10.90;5.85;;;-3.10;99.90;;;;;;5053878;28;20124;-82
2022/01/14 03:31:11;;;;;;;13.05;6.55;;;-3.10;99.90;;;;;;5054097;28;20132;-82
2022/01/14 03:33:38;;;;;;;8.52;5.60;;;-3.10;99.90;;;;;;5053822;28;20489;-82
2022/01/14 03:36:06;;;;;;;11.07;6.15;;;-3.20;99.90;;;;;;5054996;28;20124;-81
2022/01/14 03:38:32;;;;;;;11.38;6.18;;;-3.10;99.90;;;;;;5057394;28;20539;-82
2022/01/14 03:41:00;;;;;;;9.32;5.88;;;-3.10;99.90;;;;;;5054941;28;20123;-82
2022/01/14 03:43:26;;;;;;;9.35;5.43;;;-3.00;99.90;;;;;;5056887;28;20533;-82
2022/01/14 03:45:53;;;;;;;13.43;7.03;;;-3.10;99.90;;;;;;5057946;28;20064;-82
2022/01/14 03:48:20;;;;;;;10.80;6.32;;;-3.00;99.90;;;;;;5055875;28;20049;-82
2022/01/14 03:50:47;;;;;;;13.35;5.70;;;-2.90;99.90;;;;;;5054320;28;20140;-82
2022/01/14 03:53:13;;;;;;;10.00;6.10;;;-2.90;99.90;;;;;;5054210;28;20063;-82
2022/01/14 03:55:43;;;;;;;12.05;6.80;;;-2.90;99.90;;;;;;5053630;28;20119;-82
2022/01/14 03:58:29;;;;;;;11.07;6.50;;;-2.90;99.90;;;;;;5053378;28;20387;-82
2022/01/14 04:00:56;;;;;;;12.30;6.85;;;-2.90;99.90;;;;;;5053312;28;20395;-82
2022/01/14 04:03:23;;;;;;;14.20;6.68;;;-3.00;99.90;;;;;;5053457;28;20135;-82
2022/01/14 04:05:50;;;;;;;11.25;6.45;;;-3.00;99.90;;;;;;5054225;28;20135;-82
2022/01/14 04:08:17;;;;;;;11.27;7.10;;;-3.00;99.90;;;;;;5053743;28;20057;-82
2022/01/14 04:10:45;;;;;;;10.13;7.05;;;-3.00;99.90;;;;;;5054625;28;20135;-81
2022/01/14 04:13:21;;;;;;;15.35;7.05;;;-3.00;99.90;;;;;;5053195;28;20098;-82
2022/01/14 04:15:48;;;;;;;11.85;6.35;;;-3.10;99.90;;;;;;5064131;28;20128;-82
2022/01/14 04:18:20;;;;;;;11.85;6.22;;;-3.20;99.90;;;;;;5075454;28;20151;-82
2022/01/14 04:20:49;;;;;;;10.02;5.97;;;-3.10;99.90;;;;;;5067375;28;20441;-82
2022/01/14 04:23:23;;;;;;;9.50;6.13;;;-3.10;99.90;;;;;;5059142;28;20135;-82
2022/01/14 04:25:53;;;;;;;16.00;5.93;;;-3.10;99.90;;;;;;5057517;28;20045;-82
2022/01/14 04:28:22;;;;;;;9.50;5.43;;;-3.10;99.90;;;;;;5074975;28;20056;-82
2022/01/14 04:30:54;;;;;;;7.57;4.40;;;-3.20;99.90;;;;;;5067427;28;20080;-82
2022/01/14 04:33:26;;;;;;;7.22;5.03;;;-3.30;99.90;;;;;;5059320;28;20131;-82
2022/01/14 04:35:57;;;;;;;7.35;5.40;;;-3.30;99.90;;;;;;5058597;28;20109;-82
2022/01/14 04:38:24;;;;;;;7.30;4.25;;;-3.30;99.90;;;;;;5058096;28;20132;-82
2022/01/14 04:40:51;;;;;;;5.88;4.55;;;-3.30;99.90;;;;;;5056957;28;20080;-82
2022/01/14 04:43:20;;;;;;;5.93;4.07;;;-3.20;99.90;;;;;;5058493;28;20084;-82
2022/01/14 04:48:28;;;;;;;6.57;4.57;;;-3.30;99.90;;;;;;5057693;28;20071;-82
2022/01/14 04:50:56;;;;;;;11.63;5.65;;;-3.30;99.90;;;;;;5057065;28;20081;-82
2022/01/14 04:53:23;;;;;;;7.10;4.63;;;-3.30;99.90;;;;;;5056514;28;20041;-82
2022/01/14 04:55:51;;;;;;;7.55;5.25;;;-3.30;99.90;;;;;;5055511;28;20100;-82
2022/01/14 04:58:18;;;;;;;9.20;4.57;;;-3.30;99.90;;;;;;5056206;28;20044;-82
2022/01/14 05:00:45;;;;;;;8.23;5.18;;;-3.30;99.90;;;;;;5056287;28;20513;-82
2022/01/14 05:03:12;;;;;;;9.13;5.00;;;-3.40;99.90;;;;;;5056180;28;20069;-82
2022/01/14 05:05:42;;;;;;;9.60;5.35;;;-3.40;99.90;;;;;;5054982;28;20135;-82
2022/01/14 05:08:19;;;;;;;7.45;4.65;;;-3.50;99.90;;;;;;5054566;28;20132;-82
2022/01/14 05:11:03;;;;;;;8.27;5.00;;;-3.50;99.90;;;;;;5054573;28;20557;-82
2022/01/14 05:13:30;;;;;;;9.55;5.32;;;-3.50;99.90;;;;;;5053778;28;20128;-82
2022/01/14 05:15:57;;;;;;;8.48;5.00;;;-3.40;99.90;;;;;;5054744;28;20135;-82
2022/01/14 05:18:24;;;;;;;6.82;4.63;;;-3.40;99.90;;;;;;5055934;28;20045;-82
2022/01/14 05:20:53;;;;;;;9.18;7.20;;;-3.50;99.90;;;;;;5053635;28;20178;-82
2022/01/14 05:23:19;;;;;;;29.85;17.67;;;-3.50;99.90;;;;;;5054974;28;20419;-82
2022/01/14 05:25:47;;;;;;;17.08;9.35;;;-3.60;99.90;;;;;;5053630;28;20551;-82
2022/01/14 05:28:13;;;;;;;9.43;6.53;;;-3.50;99.90;;;;;;5054197;28;20068;-82
2022/01/14 05:30:41;;;;;;;10.60;6.47;;;-3.60;99.90;;;;;;5053483;28;20143;-82
2022/01/14 05:33:08;;;;;;;10.93;6.35;;;-3.50;99.90;;;;;;5054332;28;20128;-82
2022/01/14 05:35:34;;;;;;;6.38;4.88;;;-3.50;99.90;;;;;;5053138;28;20124;-82
2022/01/14 05:38:01;;;;;;;6.45;4.50;;;-3.50;99.90;;;;;;5054308;28;20088;-82
2022/01/14 05:40:29;;;;;;;10.80;6.47;;;-3.50;99.90;;;;;;5053029;28;20049;-81
2022/01/14 05:42:56;;;;;;;9.93;5.72;;;-3.50;99.90;;;;;;5053274;28;20065;-82
2022/01/14 05:45:23;;;;;;;9.45;5.50;;;-3.60;99.90;;;;;;5055080;28;20083;-82
2022/01/14 05:47:50;;;;;;;10.70;5.68;;;-3.60;99.90;;;;;;5058141;28;20143;-82
2022/01/14 05:50:19;;;;;;;9.88;5.38;;;-3.60;99.90;;;;;;5056283;28;20478;-82
2022/01/14 05:52:46;;;;;;;16.48;5.65;;;-3.50;99.90;;;;;;5056903;28;20226;-82
2022/01/14 05:55:15;;;;;;;8.40;5.40;;;-3.60;99.90;;;;;;5057310;28;20049;-82
2022/01/14 05:57:42;;;;;;;8.73;5.25;;;-3.60;99.90;;;;;;5057253;28;20131;-81
2022/01/14 06:00:15;;;;;;;8.38;5.65;;;-3.50;99.90;;;;;;5056118;28;20131;-82
2022/01/14 06:02:42;;;;;;;13.05;6.72;;;-3.50;99.90;;;;;;5055676;28;20132;-82
2022/01/14 06:05:09;;;;;;;10.07;5.82;;;-3.50;99.90;;;;;;5056294;28;20484;-81
2022/01/14 06:07:36;;;;;;;7.50;4.65;;;-3.50;99.90;;;;;;5055276;28;20053;-81
2022/01/14 06:10:03;;;;;;;11.00;5.10;;;-3.50;99.90;;;;;;5057019;28;20470;-82
2022/01/14 06:12:30;;;;;;;12.02;4.80;;;-3.50;99.90;;;;;;5056108;28;20123;-81
2022/01/14 06:14:57;;;;;;;12.05;4.97;;;-3.50;99.90;;;;;;5055485;28;20053;-82
2022/01/14 06:17:23;;;;;;;8.40;5.72;;;-3.50;99.90;;;;;;5056593;28;20128;-81
2022/01/14 06:19:50;;;;;;;15.25;6.88;;;-3.50;99.90;;;;;;5056079;28;20136;-80
2022/01/14 06:22:21;;;;;;;12.23;6.60;;;-3.60;99.90;;;;;;5056108;28;20520;-82
2022/01/14 06:24:49;;;;;;;11.30;5.57;;;-3.60;99.90;;;;;;5055200;28;20088;-81
2022/01/14 06:27:16;;;;;;;9.57;5.78;;;-3.60;99.90;;;;;;5055832;28;20139;-81
2022/01/14 06:29:43;;;;;;;7.25;4.65;;;-3.60;99.90;;;;;;5056091;28;20130;-82
2022/01/14 06:32:10;;;;;;;7.20;4.55;;;-3.70;99.90;;;;;;5067392;22;20054;-80
2022/01/14 06:34:36;;;;;;;9.65;5.03;;;-3.70;99.90;;;;;;5041270;28;20084;-80
2022/01/14 06:37:03;;;;;;;13.05;5.70;;;-3.70;99.90;;;;;;5041544;28;20109;-80
2022/01/14 06:39:30;;;;;;;8.35;4.72;;;-3.70;99.90;;;;;;5041915;28;20109;-80
2022/01/14 06:41:57;;;;;;;8.15;4.85;;;-3.70;99.90;;;;;;5036423;28;20132;-80
2022/01/14 06:44:23;;;;;;;11.63;5.85;;;-3.70;99.90;;;;;;5037861;28;20140;-80
2022/01/14 06:46:51;;;;;;;6.85;4.55;;;-3.70;99.90;;;;;;5036142;28;20484;-80
2022/01/14 06:49:18;;;;;;;7.95;5.00;;;-3.70;99.90;;;;;;5037413;28;20060;-80
2022/01/14 06:51:45;;;;;;;6.70;4.55;;;-3.70;99.90;;;;;;5036029;28;20081;-80
2022/01/14 06:54:11;;;;;;;8.13;4.90;;;-3.70;99.90;;;;;;5038637;28;20132;-80
2022/01/14 06:56:38;;;;;;;8.27;4.18;;;-3.70;99.90;;;;;;5038941;28;20128;-81
2022/01/14 06:59:10;;;;;;;7.82;4.65;;;-3.70;99.90;;;;;;5038542;28;20048;-81
2022/01/14 07:01:37;;;;;;;8.63;4.28;;;-3.70;99.90;;;;;;5037994;28;20080;-81
2022/01/14 07:04:04;;;;;;;8.88;4.88;;;-3.70;99.90;;;;;;5038465;28;20136;-80
2022/01/14 07:06:31;;;;;;;8.05;4.93;;;-3.80;99.90;;;;;;5036810;28;20049;-80
2022/01/14 07:08:57;;;;;;;9.10;5.25;;;-3.80;99.90;;;;;;5036531;28;20088;-80
2022/01/14 07:11:30;;;;;;;8.63;5.25;;;-3.70;99.90;;;;;;5037001;28;20136;-80
2022/01/14 07:13:56;;;;;;;8.85;5.60;;;-3.70;99.90;;;;;;5037137;28;20144;-79
2022/01/14 07:16:23;;;;;;;13.18;6.22;;;-3.70;99.90;;;;;;5038285;28;20129;-81
2022/01/14 07:18:50;;;;;;;10.88;6.45;;;-3.60;99.90;;;;;;5036834;28;20080;-80
2022/01/14 07:21:17;;;;;;;13.63;5.90;;;-3.50;99.90;;;;;;5036420;28;20466;-80
2022/01/14 07:23:43;;;;;;;13.18;5.82;;;-3.40;99.90;;;;;;5037890;28;20132;-81
2022/01/14 07:26:10;;;;;;;15.07;5.93;;;-3.40;99.90;;;;;;5036733;28;20085;-80
2022/01/14 07:28:37;;;;;;;8.52;5.70;;;-3.40;99.90;;;;;;5038533;28;20132;-81
2022/01/14 07:31:04;;;;;;;12.90;6.22;;;-3.50;99.90;;;;;;5037593;28;20095;-81
2022/01/14 07:33:31;;;;;;;16.77;6.60;;;-3.40;99.90;;;;;;5037232;28;20045;-80
2022/01/14 07:35:57;;;;;;;13.95;6.43;;;-3.40;99.90;;;;;;5038815;28;20124;-80
2022/01/14 07:38:24;;;;;;;9.07;5.55;;;-3.40;99.90;;;;;;5038788;28;20100;-81
2022/01/14 07:40:51;;;;;;;11.02;6.10;;;-3.40;99.90;;;;;;5038310;28;20124;-80
2022/01/14 07:43:19;;;;;;;9.75;5.32;;;-3.30;99.90;;;;;;5053727;28;20049;-81
2022/01/14 07:45:47;;;;;;;8.80;5.50;;;-3.30;99.90;;;;;;5053330;28;20046;-80
2022/01/14 07:48:14;;;;;;;9.43;4.88;;;-3.40;99.90;;;;;;5053518;28;20183;-80
2022/01/14 07:50:41;;;;;;;8.85;5.32;;;-3.30;99.90;;;;;;5038498;28;20593;-80
2022/01/14 07:53:08;;;;;;;10.30;5.78;;;-3.40;99.90;;;;;;5053381;28;20513;-80
2022/01/14 07:55:35;;;;;;;8.23;5.13;;;-3.40;99.90;;;;;;5038143;28;20046;-81
2022/01/14 07:58:02;;;;;;;14.63;7.43;;;-3.40;99.90;;;;;;5054236;28;20574;-80
2022/01/14 08:00:30;;;;;;;11.07;6.55;;;-3.20;99.90;;;;;;5053092;28;20101;-80
2022/01/14 08:02:57;;;;;;;11.40;6.28;;;-3.20;99.90;;;;;;5038213;28;20085;-81
2022/01/14 08:05:23;;;;;;;14.68;6.70;;;-3.20;99.90;;;;;;5038534;28;20046;-80
2022/01/14 08:07:53;;;;;;;8.43;6.05;;;-3.20;99.90;;;;;;5052580;28;20089;-81
2022/01/14 08:10:19;;;;;;;8.90;5.72;;;-3.10;99.90;;;;;;5039260;28;20053;-80
2022/01/14 08:12:46;;;;;;;10.77;5.78;;;-3.10;99.90;;;;;;5054667;28;20085;-80
2022/01/14 08:15:13;;;;;;;8.77;5.72;;;-3.00;99.90;;;;;;5054690;28;20105;-80
2022/01/14 08:17:40;;;;;;;12.55;6.32;;;-3.10;99.90;;;;;;5053200;28;20045;-80
2022/01/14 08:20:08;;;;;;;13.18;5.80;;;-3.10;99.90;;;;;;5038066;28;20112;-81
2022/01/14 08:22:35;;;;;;;8.82;5.38;;;-3.10;99.90;;;;;;5053526;28;20132;-80
2022/01/14 08:25:03;;;;;;;8.80;5.55;;;-3.00;99.90;;;;;;5038941;28;20092;-79
2022/01/14 08:27:29;;;;;;;10.80;5.75;;;-3.10;99.90;;;;;;5038863;28;20115;-80
2022/01/14 08:29:56;;;;;;;13.90;7.32;;;-3.10;99.90;;;;;;5038633;28;20101;-79
2022/01/14 08:32:23;;;;;;;10.95;6.63;;;-3.10;99.90;;;;;;5053295;28;20128;-79
2022/01/14 08:34:50;;;;;;;14.13;7.00;;;-3.00;99.90;;;;;;5053392;28;20084;-80
2022/01/14 08:37:17;;;;;;;15.90;9.10;;;-3.00;99.90;;;;;;5053741;28;20081;-80
2022/01/14 08:39:44;;;;;;;21.95;11.18;;;-2.90;99.90;;;;;;5054161;28;20132;-80
2022/01/14 08:42:12;;;;;;;29.23;15.18;;;-3.00;99.90;;;;;;5036847;28;20058;-80
2022/01/14 08:44:39;;;;;;;26.67;13.98;;;-2.90;99.90;;;;;;5036987;28;20132;-81
2022/01/14 08:47:09;;;;;;;21.73;11.32;;;-2.90;99.90;;;;;;5038471;28;20059;-80
2022/01/14 08:49:41;;;;;;;20.13;9.32;;;-2.90;99.90;;;;;;5038798;28;20068;-80
2022/01/14 08:52:10;;;;;;;22.73;11.70;;;-2.70;99.90;;;;;;5054173;28;20085;-80
2022/01/14 08:54:37;;;;;;;18.13;10.73;;;-2.80;99.90;;;;;;5037440;28;20041;-80
2022/01/14 08:57:05;;;;;;;16.95;9.75;;;-2.80;99.90;;;;;;5038577;28;20092;-80
2022/01/14 08:59:32;;;;;;;15.20;9.18;;;-2.70;99.90;;;;;;5053636;28;20091;-80
2022/01/14 09:02:00;;;;;;;15.93;9.75;;;-2.70;99.90;;;;;;5038560;28;20106;-80
2022/01/14 09:04:27;;;;;;;19.02;10.05;;;-2.70;99.90;;;;;;5039546;28;20482;-80
2022/01/14 09:06:53;;;;;;;32.08;13.68;;;-2.70;99.90;;;;;;5039873;28;20041;-81
2022/01/14 09:09:22;;;;;;;23.77;12.55;;;-2.60;99.90;;;;;;5042062;28;20049;-81
2022/01/14 09:11:49;;;;;;;25.73;14.43;;;-2.60;99.90;;;;;;5041223;28;20085;-80
2022/01/14 09:14:15;;;;;;;20.20;12.93;;;-2.60;99.90;;;;;;5036854;28;20077;-79
2022/01/14 09:16:42;;;;;;;23.40;12.32;;;-2.50;99.90;;;;;;5032140;28;20083;-79
2022/01/14 09:19:09;;;;;;;18.75;10.45;;;-2.50;99.90;;;;;;5033765;28;20077;-80
2022/01/14 09:21:36;;;;;;;28.67;15.70;;;-2.50;99.90;;;;;;5038102;28;20132;-80
2022/01/14 09:24:03;;;;;;;24.95;15.80;;;-2.50;99.90;;;;;;5037017;28;20055;-79
2022/01/14 09:26:35;;;;;;;31.73;16.45;;;-2.50;99.90;;;;;;5036268;28;20045;-79
2022/01/14 09:29:04;;;;;;;29.65;16.13;;;-2.40;99.90;;;;;;5037365;28;20085;-79
2022/01/14 09:31:31;;;;;;;29.38;16.50;;;-2.30;99.90;;;;;;5036452;28;20092;-80
2022/01/14 09:33:58;;;;;;;30.17;15.90;;;-2.40;99.90;;;;;;5037065;28;20054;-80
2022/01/14 09:36:25;;;;;;;38.03;15.65;;;-2.40;99.90;;;;;;5037015;28;20132;-80
2022/01/14 09:38:52;;;;;;;48.00;16.63;;;-2.30;99.90;;;;;;5035851;28;20132;-79
2022/01/14 09:41:18;;;;;;;33.38;17.33;;;-2.20;99.90;;;;;;5037361;28;20479;-79
2022/01/14 09:43:46;;;;;;;37.13;18.02;;;-2.20;99.90;;;;;;5035737;28;20056;-80
2022/01/14 09:46:13;;;;;;;31.00;15.65;;;-2.20;99.90;;;;;;5037150;28;20474;-79
2022/01/14 09:48:40;;;;;;;56.70;21.35;;;-2.10;99.90;;;;;;5035482;28;20049;-79
2022/01/14 09:51:07;;;;;;;42.33;17.20;;;-2.10;99.90;;;;;;5035696;28;20144;-79
2022/01/14 09:53:34;;;;;;;47.08;19.13;;;-1.90;99.90;;;;;;5036899;28;20477;-80
2022/01/14 09:56:02;;;;;;;41.17;15.07;;;-2.00;99.90;;;;;;5035409;28;20045;-80
2022/01/14 09:58:35;;;;;;;56.10;22.63;;;-1.90;99.90;;;;;;5035784;28;20057;-80
2022/01/14 10:01:23;;;;;;;46.97;27.77;;;-1.90;99.90;;;;;;5036857;28;20080;-80
2022/01/14 10:03:54;;;;;;;58.50;33.38;;;-1.70;99.90;;;;;;5035835;28;20080;-81
2022/01/14 10:06:40;;;;;;;52.15;23.30;;;-1.60;99.90;;;;;;5035667;28;20053;-79
2022/01/14 10:09:23;;;;;;;38.80;18.92;;;-1.60;99.90;;;;;;5036132;28;20140;-80
2022/01/14 10:12:08;;;;;;;36.22;19.55;;;-1.60;99.90;;;;;;5034946;28;20140;-80
2022/01/14 10:14:40;;;;;;;29.23;16.52;;;-1.50;99.90;;;;;;5035752;28;20095;-79
2022/01/14 10:17:09;;;;;;;11.00;6.90;;;-1.50;99.90;;;;;;5037132;28;20083;-79
2022/01/14 10:19:39;;;;;;;17.13;6.95;;;-1.50;99.90;;;;;;5051998;28;20131;-80
2022/01/14 10:22:31;;;;;;;22.08;10.90;;;-1.40;99.90;;;;;;5036938;28;20049;-79
2022/01/14 10:25:06;;;;;;;17.88;11.77;;;-1.30;99.90;;;;;;5035171;28;20136;-80
2022/01/14 10:27:43;;;;;;;44.33;11.75;;;-1.20;99.90;;;;;;5035383;28;20077;-80
2022/01/14 10:30:14;;;;;;;49.20;13.30;;;-1.00;99.90;;;;;;5034951;28;20136;-79
2022/01/14 10:32:43;;;;;;;49.40;11.55;;;-1.00;99.90;;;;;;5035235;28;20057;-80
2022/01/14 10:35:17;;;;;;;42.10;11.10;;;-0.80;99.90;;;;;;5035043;28;20103;-81
2022/01/14 10:37:44;;;;;;;48.10;14.73;;;-0.80;99.90;;;;;;5036512;28;20076;-80
2022/01/14 10:40:18;;;;;;;80.80;29.70;;;-0.80;99.90;;;;;;5036655;28;20477;-81
2022/01/14 10:42:45;;;;;;;69.97;17.10;;;-0.60;99.90;;;;;;5035091;28;20049;-80
2022/01/14 10:45:24;;;;;;;71.70;14.38;;;-0.30;99.90;;;;;;5035350;28;20356;-81
2022/01/14 10:48:03;;;;;;;52.22;28.23;;;0.00;99.90;;;;;;5035003;28;20052;-81
2022/01/14 10:50:33;;;;;;;68.35;33.75;;;0.20;99.90;;;;;;5036596;28;20481;-81
2022/01/14 10:53:01;;;;;;;30.50;12.35;;;0.50;99.90;;;;;;5036579;28;20339;-81
2022/01/14 10:55:34;;;;;;;27.15;8.65;;;0.70;99.90;;;;;;5035294;28;20073;-82
2022/01/14 10:58:07;;;;;;;53.80;12.00;;;1.10;99.90;;;;;;5051997;28;20416;-82
2022/01/14 11:01:00;;;;;;;57.40;12.30;;;1.30;99.90;;;;;;5036784;28;20041;-82
2022/01/14 11:03:44;;;;;;;74.32;13.68;;;3.20;99.90;;;;;;5036236;28;20055;-82
2022/01/14 11:06:32;;;;;;;74.28;16.65;;;5.50;99.90;;;;;;5035107;28;20053;-83
2022/01/14 11:09:09;;;;;;;54.83;14.80;;;7.70;99.90;;;;;;5034654;28;20056;-84
2022/01/14 11:11:38;;;;;;;23.83;4.60;;;10.10;99.90;;;;;;5035797;28;20403;-83
2022/01/14 11:14:07;;;;;;;16.67;3.85;;;11.60;99.90;;;;;;5050740;28;20049;-83
2022/01/14 11:16:35;;;;;;;41.88;7.05;;;13.20;99.90;;;;;;5035287;28;20084;-82
2022/01/14 11:19:03;;;;;;;35.47;7.70;;;13.70;99.90;;;;;;5035756;28;20088;-83
2022/01/14 11:24:24;;;;;;;28.67;5.38;;;15.20;99.90;;;;;;5035123;28;20084;-82
2022/01/14 11:27:11;;;;;;;12.70;3.72;;;15.50;99.90;;;;;;5050084;28;20203;-82
2022/01/14 11:29:41;;;;;;;47.40;5.35;;;16.50;99.90;;;;;;5035827;28;20136;-82
2022/01/14 11:32:09;;;;;;;24.55;4.22;;;16.80;99.90;;;;;;5035136;28;20057;-83
2022/01/14 11:34:43;;;;;;;441.67;42.63;;;16.60;99.90;;;;;;5035588;28;20084;-83
2022/01/14 11:37:13;;;;;;;13.77;3.30;;;16.90;99.90;;;;;;5034839;28;20470;-83
2022/01/14 11:39:54;;;;;;;16.05;2.67;;;17.50;91.60;;;;;;5051499;28;20049;-83
2022/01/14 11:42:45;;;;;;;46.20;7.03;;;17.50;87.20;;;;;;5034934;28;20084;-83
2022/01/14 11:45:15;;;;;;;41.08;5.65;;;17.20;94.70;;;;;;5035985;28;20057;-83
2022/01/14 11:47:44;;;;;;;9.98;2.65;;;17.30;87.00;;;;;;5050945;28;20084;-83
2022/01/14 11:50:21;;;;;;;3.85;2.22;;;17.50;85.60;;;;;;5051573;28;20053;-84
2022/01/14 11:52:49;;;;;;;6.85;1.88;;;17.10;81.30;;;;;;5050951;28;20140;-84
2022/01/14 11:55:22;;;;;;;4.70;2.00;;;16.50;76.90;;;;;;5050677;28;20046;-82
2022/01/14 11:57:49;;;;;;;12.13;2.50;;;16.70;77.80;;;;;;5035729;28;20084;-83
2022/01/14 12:00:27;;;;;;;8.50;2.70;;;16.50;77.20;;;;;;5036020;28;20473;-83
2022/01/14 12:02:59;;;;;;;6.45;2.63;;;16.50;76.20;;;;;;5051033;28;20056;-82
2022/01/14 12:05:30;;;;;;;5.90;3.05;;;15.70;74.50;;;;;;5051408;28;20136;-83
2022/01/14 12:08:03;;;;;;;7.05;4.10;;;12.90;80.20;;;;;;5035976;28;20057;-83
2022/01/14 12:10:35;;;;;;;5.80;4.30;;;11.10;87.80;;;;;;5051329;28;20128;-82
2022/01/14 12:13:24;;;;;;;6.05;4.43;;;11.00;93.00;;;;;;5051128;28;20136;-83
2022/01/14 12:15:58;;;;;;;7.55;5.75;;;10.80;93.90;;;;;;5036142;28;20497;-82
2022/01/14 12:18:56;;;;;;;6.85;5.32;;;9.20;99.10;;;;;;5050973;28;20508;-82
2022/01/14 12:21:44;;;;;;;6.80;5.18;;;9.10;99.90;;;;;;5036033;28;20125;-83
2022/01/14 12:24:17;;;;;;;6.50;4.93;;;10.50;99.90;;;;;;5052165;28;20155;-83
2022/01/14 12:27:08;;;;;;;8.27;5.53;;;11.00;98.20;;;;;;5036407;28;20085;-83
2022/01/14 12:29:34;;;;;;;8.25;6.18;;;11.10;96.50;;;;;;5051609;28;20128;-83
2022/01/14 12:32:06;;;;;;;7.05;5.80;;;10.50;97.70;;;;;;5061285;22;20409;-81
2022/01/14 12:34:36;;;;;;;7.68;5.93;;;9.60;99.90;;;;;;5036866;28;20680;-82
2022/01/14 12:37:05;;;;;;;9.35;6.28;;;10.00;99.90;;;;;;5035747;28;20388;-81
2022/01/14 12:39:32;;;;;;;9.98;6.30;;;9.20;99.90;;;;;;5035209;28;20136;-81
2022/01/14 12:42:01;;;;;;;7.80;5.85;;;8.90;99.90;;;;;;5034878;28;20132;-80
2022/01/14 12:44:28;;;;;;;10.55;6.60;;;9.00;99.90;;;;;;5035051;28;20052;-82
2022/01/14 12:47:20;;;;;;;8.45;6.55;;;9.20;99.90;;;;;;5037049;28;20049;-84
2022/01/14 12:49:48;;;;;;;9.13;6.18;;;8.60;99.90;;;;;;5038960;28;20049;-84
2022/01/14 12:52:27;;;;;;;8.43;6.68;;;8.40;99.90;;;;;;5037018;28;20049;-84
2022/01/14 12:54:55;;;;;;;15.77;6.82;;;8.90;99.90;;;;;;5036474;28;20132;-84
2022/01/14 12:57:25;;;;;;;7.70;6.70;;;8.70;99.90;;;;;;5036867;28;20042;-82
2022/01/14 12:59:52;;;;;;;10.25;7.13;;;8.00;99.90;;;;;;5036173;28;20487;-82
2022/01/14 13:02:26;;;;;;;11.90;7.47;;;7.90;99.90;;;;;;5036755;28;20053;-82
2022/01/14 13:05:05;;;;;;;10.23;7.28;;;7.40;99.90;;;;;;5037803;28;20045;-82
2022/01/14 13:07:32;;;;;;;10.05;6.93;;;7.00;99.90;;;;;;5035846;28;20045;-82
2022/01/14 13:10:00;;;;;;;11.85;7.32;;;6.90;99.90;;;;;;5036463;28;20080;-84
2022/01/14 13:12:35;;;;;;;11.77;7.85;;;6.80;99.90;;;;;;5036331;28;20080;-84